createdAt,value
2018-06-30T00:02:11.851Z,25.00
2018-06-30T00:04:58.212Z,30.27
2018-06-30T00:07:41.609Z,23.17
2018-06-30T00:10:37.718Z,23.93
2018-06-30T00:13:22.653Z,26.33
2018-06-30T00:16:13.325Z,30.73
2018-06-30T00:18:59.404Z,28.93
2018-06-30T00:21:48.751Z,25.67
2018-06-30T00:24:38.085Z,26.53
2018-06-30T00:27:20.774Z,27.17
2018-06-30T00:30:07.778Z,30.77
2018-06-30T00:32:55.495Z,30.23
2018-06-30T00:35:46.084Z,29.43
2018-06-30T00:38:32.059Z,23.30
2018-06-30T00:41:16.577Z,31.00
2018-06-30T00:44:05.259Z,27.67
2018-06-30T00:46:51.130Z,26.97
2018-06-30T00:49:35.038Z,24.83
2018-06-30T00:52:19.527Z,22.87
2018-06-30T00:57:57.922Z,31.13
2018-06-30T01:00:48.789Z,31.97
2018-06-30T01:03:31.119Z,29.33
2018-06-30T01:06:18.657Z,26.37
2018-06-30T01:09:05.256Z,29.57
2018-06-30T01:11:52.012Z,27.20
2018-06-30T01:14:28.751Z,21.13
2018-06-30T01:17:14.008Z,24.30
2018-06-30T01:19:55.960Z,24.50
2018-06-30T01:22:44.475Z,28.07
2018-06-30T01:25:25.455Z,24.77
2018-06-30T01:28:13.252Z,29.57
2018-06-30T01:30:57.325Z,25.93
2018-06-30T01:33:43.711Z,26.40
2018-06-30T01:36:25.417Z,23.63
2018-06-30T01:39:13.165Z,28.47
2018-06-30T01:42:00.488Z,29.07
2018-06-30T01:44:43.545Z,30.87
2018-06-30T01:47:30.538Z,26.20
2018-06-30T01:50:15.575Z,31.37
2018-06-30T01:53:01.893Z,27.50
2018-06-30T01:55:49.817Z,30.37
2018-06-30T01:58:34.431Z,24.97
2018-06-30T02:01:20.625Z,24.83
2018-06-30T02:04:01.972Z,27.57
2018-06-30T02:06:46.760Z,27.73
2018-06-30T02:09:29.434Z,31.37
2018-06-30T02:12:13.247Z,25.37
2018-06-30T02:15:02.331Z,29.57
2018-06-30T02:20:42.248Z,27.53
2018-06-30T02:23:26.065Z,30.37
2018-06-30T02:26:10.049Z,30.13
2018-06-30T02:28:51.375Z,24.60
2018-06-30T02:31:35.691Z,31.60
2018-06-30T02:34:28.208Z,26.63
2018-06-30T02:37:13.441Z,27.40
2018-06-30T02:40:04.107Z,34.90
2018-06-30T02:42:48.155Z,30.97
2018-06-30T02:45:37.248Z,30.50
2018-06-30T02:48:27.184Z,27.93
2018-06-30T02:51:12.472Z,34.83
2018-06-30T02:54:00.494Z,29.63
2018-06-30T02:56:44.855Z,28.70
2018-06-30T02:59:25.221Z,32.97
2018-06-30T03:02:12.233Z,34.30
2018-06-30T03:04:58.389Z,32.47
2018-06-30T03:07:42.921Z,40.67
2018-06-30T03:10:31.983Z,33.90
2018-06-30T03:13:16.529Z,32.87
2018-06-30T03:16:01.808Z,32.87
2018-06-30T03:18:42.601Z,34.53
2018-06-30T03:21:28.314Z,30.97
2018-06-30T03:24:20.996Z,35.53
2018-06-30T03:27:07.553Z,32.00
2018-06-30T03:29:55.635Z,29.47
2018-06-30T03:32:45.479Z,31.23
2018-06-30T03:35:28.835Z,32.57
2018-06-30T03:38:14.443Z,32.20
2018-06-30T03:41:01.329Z,28.97
2018-06-30T03:43:48.745Z,29.03
2018-06-30T03:46:39.212Z,30.33
2018-06-30T03:49:25.593Z,29.83
2018-06-30T03:52:09.782Z,34.13
2018-06-30T03:54:56.307Z,28.70
2018-06-30T03:57:41.886Z,29.37
2018-06-30T04:00:28.007Z,29.60
2018-06-30T04:03:15.107Z,31.47
2018-06-30T04:06:10.910Z,31.80
2018-06-30T04:08:55.819Z,28.37
2018-06-30T04:11:41.675Z,34.33
2018-06-30T04:14:27.952Z,31.13
2018-06-30T06:54:08.168Z,14.67
2018-06-30T06:56:37.154Z,14.77
2018-06-30T06:59:06.052Z,16.27
2018-06-30T07:01:35.042Z,14.47
2018-06-30T07:04:04.087Z,16.70
2018-06-30T07:06:33.310Z,17.53
2018-06-30T07:09:02.594Z,13.70
2018-06-30T07:11:31.547Z,16.27
2018-06-30T07:14:00.517Z,15.37
2018-06-30T07:16:32.318Z,17.33
2018-06-30T07:19:01.250Z,14.87
2018-06-30T07:21:30.171Z,13.00
2018-06-30T07:23:59.190Z,14.90
2018-06-30T07:26:28.195Z,18.73
2018-06-30T07:28:57.337Z,16.40
2018-06-30T07:31:26.412Z,17.77
2018-06-30T07:33:55.403Z,13.17
2018-06-30T07:36:24.359Z,12.77
2018-06-30T07:38:53.349Z,17.57
2018-06-30T07:41:22.311Z,15.90
2018-06-30T07:43:51.343Z,14.07
2018-06-30T07:46:20.284Z,14.60
2018-06-30T07:48:49.212Z,14.67
2018-06-30T07:51:18.227Z,21.57
2018-06-30T07:53:47.198Z,13.83
2018-06-30T07:56:16.116Z,13.50
2018-06-30T07:58:45.028Z,15.20
2018-06-30T08:01:14.090Z,14.50
2018-06-30T08:03:43.036Z,15.60
2018-06-30T08:06:12.003Z,13.30
2018-06-30T08:08:41.107Z,14.03
2018-06-30T08:11:10.079Z,19.57
2018-06-30T08:13:39.090Z,14.47
2018-06-30T08:16:08.002Z,13.50
2018-06-30T08:18:36.935Z,14.40
2018-06-30T08:21:05.973Z,13.90
2018-06-30T08:23:34.955Z,15.23
2018-06-30T08:26:03.964Z,13.97
2018-06-30T08:28:38.371Z,13.03
2018-06-30T08:31:07.340Z,16.83
2018-06-30T08:33:36.312Z,14.37
2018-06-30T08:36:05.308Z,19.50
2018-06-30T08:38:34.421Z,16.13
2018-06-30T08:41:03.382Z,16.00
2018-06-30T08:43:32.412Z,16.60
2018-06-30T08:46:01.393Z,17.03
2018-06-30T08:48:30.407Z,13.80
2018-06-30T08:50:59.381Z,13.37
2018-06-30T08:53:28.387Z,13.07
2018-06-30T08:55:57.351Z,15.23
2018-06-30T08:58:26.341Z,13.17
2018-06-30T09:00:55.279Z,13.73
2018-06-30T09:03:24.224Z,20.00
2018-06-30T09:05:53.306Z,11.90
2018-06-30T09:08:22.444Z,14.20
2018-06-30T09:10:51.529Z,13.20
2018-06-30T09:13:20.468Z,12.37
2018-06-30T09:15:49.390Z,16.77
2018-06-30T09:18:18.351Z,11.47
2018-06-30T09:20:47.342Z,13.23
2018-06-30T09:23:16.304Z,14.40
2018-06-30T09:25:45.261Z,10.03
2018-06-30T09:28:14.214Z,12.67
2018-06-30T09:30:43.173Z,16.43
2018-06-30T09:33:12.096Z,18.30
2018-06-30T09:35:41.056Z,11.23
2018-06-30T09:38:10.045Z,10.93
2018-06-30T09:40:39.069Z,11.70
2018-06-30T09:43:08.197Z,12.53
2018-06-30T09:45:37.320Z,13.20
2018-06-30T09:48:06.363Z,11.87
2018-06-30T09:50:35.364Z,15.30
2018-06-30T09:53:04.389Z,10.83
2018-06-30T09:55:33.334Z,12.90
2018-06-30T09:58:02.320Z,13.53
2018-06-30T10:01:36.431Z,13.13
2018-06-30T10:04:05.398Z,10.97
2018-06-30T10:06:34.407Z,16.60
2018-06-30T10:09:03.877Z,12.20
2018-06-30T10:11:32.834Z,9.80
2018-06-30T10:14:01.792Z,12.53
2018-06-30T10:16:30.764Z,15.43
2018-06-30T10:18:59.808Z,10.40
2018-06-30T10:21:28.841Z,12.40
2018-06-30T10:23:57.803Z,10.80
2018-06-30T10:26:26.881Z,11.53
2018-06-30T10:29:02.568Z,10.23
2018-06-30T10:31:31.600Z,9.67
2018-06-30T10:34:00.525Z,10.20
2018-06-30T10:36:29.517Z,10.63
2018-06-30T10:38:58.531Z,8.07
2018-06-30T10:41:28.131Z,8.27
2018-06-30T10:43:57.069Z,10.50
2018-06-30T10:46:26.101Z,7.67
2018-06-30T10:48:55.018Z,7.43
2018-06-30T10:51:24.048Z,6.90
2018-06-30T10:53:53.054Z,10.93
2018-06-30T10:56:22.108Z,7.80
2018-06-30T10:58:51.238Z,7.67
2018-06-30T11:01:20.138Z,7.00
2018-06-30T11:03:49.113Z,10.40
2018-06-30T11:06:18.069Z,7.77
2018-06-30T11:08:46.960Z,7.23
2018-06-30T11:11:15.909Z,8.00
2018-06-30T11:13:44.846Z,10.63
2018-06-30T11:16:13.765Z,10.10
2018-06-30T11:18:42.756Z,10.37
2018-06-30T11:21:11.806Z,7.23
2018-06-30T11:23:40.753Z,7.90
2018-06-30T11:26:09.949Z,8.97
2018-06-30T11:28:39.117Z,6.00
2018-06-30T11:31:08.278Z,7.60
2018-06-30T11:33:37.230Z,5.77
2018-06-30T11:36:06.314Z,12.23
2018-06-30T11:38:35.249Z,5.33
2018-06-30T11:41:04.290Z,5.00
2018-06-30T11:43:33.242Z,10.50
2018-06-30T11:46:07.681Z,5.20
2018-06-30T11:48:36.656Z,4.90
2018-06-30T11:51:05.835Z,8.57
2018-06-30T11:53:34.790Z,7.10
2018-06-30T11:56:03.758Z,4.80
2018-06-30T11:58:32.837Z,7.27
2018-06-30T12:01:01.806Z,4.57
2018-06-30T12:03:30.925Z,9.70
2018-06-30T12:05:59.786Z,5.90
2018-06-30T12:08:28.821Z,5.13
2018-06-30T12:10:58.084Z,7.20
2018-06-30T12:13:27.098Z,9.30
2018-06-30T12:15:56.110Z,5.70
2018-06-30T12:18:25.080Z,4.77
2018-06-30T12:20:54.159Z,11.57
2018-06-30T12:23:23.041Z,5.10
2018-06-30T12:25:51.972Z,7.67
2018-06-30T12:28:20.959Z,7.13
2018-06-30T12:30:49.881Z,4.53
2018-06-30T12:33:18.844Z,8.27
2018-06-30T12:35:47.940Z,4.70
2018-06-30T12:38:16.880Z,7.00
2018-06-30T12:40:46.096Z,4.07
2018-06-30T12:43:15.082Z,9.07
2018-06-30T12:45:44.339Z,14.23
2018-06-30T12:48:13.380Z,4.60
2018-06-30T12:50:42.367Z,7.43
2018-06-30T12:53:11.262Z,5.00
2018-06-30T12:55:40.289Z,4.33
2018-06-30T12:58:09.348Z,6.57
2018-06-30T13:00:38.339Z,5.33
2018-06-30T13:03:07.374Z,4.60
2018-06-30T13:05:36.297Z,3.60
2018-06-30T13:08:05.299Z,5.83
2018-06-30T13:10:34.318Z,4.47
2018-06-30T13:13:03.335Z,7.00
2018-06-30T13:15:32.342Z,7.47
2018-06-30T13:18:01.330Z,5.53
2018-06-30T13:20:30.457Z,4.13
2018-06-30T13:22:59.444Z,5.17
2018-06-30T13:25:28.472Z,6.37
2018-06-30T13:27:57.398Z,4.00
2018-06-30T13:30:26.359Z,3.80
2018-06-30T13:32:55.280Z,5.47
2018-06-30T13:35:24.257Z,3.73
2018-06-30T13:37:53.441Z,3.73
2018-06-30T13:40:22.356Z,3.83
2018-06-30T13:42:51.384Z,7.63
2018-06-30T13:45:20.336Z,3.70
2018-06-30T13:47:49.504Z,3.40
2018-06-30T13:50:19.561Z,4.17
2018-06-30T13:52:48.497Z,3.57
2018-06-30T13:55:17.614Z,4.40
2018-06-30T13:57:46.541Z,4.17
2018-06-30T14:00:15.887Z,3.77
2018-06-30T14:02:44.900Z,3.73
2018-06-30T14:05:13.840Z,3.47
2018-06-30T14:07:42.814Z,3.50
2018-06-30T14:10:11.864Z,3.27
2018-06-30T14:12:41.090Z,6.80
2018-06-30T14:15:10.675Z,4.30
2018-06-30T14:17:39.944Z,4.10
2018-06-30T14:20:09.882Z,4.70
2018-06-30T14:22:38.792Z,7.33
2018-06-30T14:25:08.195Z,5.17
2018-06-30T14:27:37.180Z,3.77
2018-06-30T14:30:08.819Z,6.50
2018-06-30T14:32:37.887Z,4.07
2018-06-30T14:35:07.151Z,3.47
2018-06-30T14:37:36.148Z,3.20
2018-06-30T14:40:05.645Z,4.50
2018-06-30T14:42:34.660Z,3.40
2018-06-30T14:45:03.711Z,3.27
2018-06-30T14:47:32.729Z,3.00
2018-06-30T14:50:01.723Z,3.90
2018-06-30T14:52:30.676Z,3.10
2018-06-30T14:54:59.649Z,3.23
2018-06-30T14:57:28.635Z,3.10
2018-06-30T14:59:57.690Z,3.20
2018-06-30T15:02:26.643Z,3.80
2018-06-30T15:04:55.575Z,5.87
2018-06-30T15:07:24.543Z,2.97
2018-06-30T15:09:53.482Z,4.10
2018-06-30T15:12:22.574Z,2.40
2018-06-30T15:14:51.493Z,2.90
2018-06-30T15:17:20.553Z,3.00
2018-06-30T15:19:49.551Z,2.87
2018-06-30T15:22:18.474Z,3.93
2018-06-30T15:24:47.399Z,2.73
2018-06-30T15:27:16.341Z,4.23
2018-06-30T15:29:45.302Z,2.63
2018-06-30T15:32:14.327Z,5.97
2018-06-30T15:34:43.563Z,3.23
2018-06-30T15:37:12.472Z,7.03
2018-06-30T15:39:41.487Z,3.37
2018-06-30T15:42:10.543Z,2.90
2018-06-30T15:44:39.565Z,2.70
2018-06-30T15:47:08.545Z,2.53
2018-06-30T15:49:37.589Z,2.40
2018-06-30T15:52:06.728Z,4.50
2018-06-30T15:54:35.656Z,2.60
2018-06-30T15:57:04.675Z,2.47
2018-06-30T15:59:33.731Z,2.87
2018-06-30T16:02:02.737Z,2.40
2018-06-30T16:04:31.757Z,2.40
2018-06-30T16:07:00.891Z,2.87
2018-06-30T16:09:29.824Z,3.77
2018-06-30T16:11:58.797Z,3.03
2018-06-30T16:14:27.909Z,2.47
2018-06-30T16:16:56.901Z,3.30
2018-06-30T16:19:25.877Z,3.10
2018-06-30T16:21:55.006Z,3.83
2018-06-30T16:24:23.997Z,4.10
2018-06-30T16:26:53.020Z,2.43
2018-06-30T16:29:22.130Z,5.60
2018-06-30T16:31:51.071Z,2.10
2018-06-30T16:34:20.075Z,3.97
2018-06-30T16:36:48.965Z,2.60
2018-06-30T16:39:17.895Z,3.37
2018-06-30T16:41:46.867Z,2.37
2018-06-30T16:44:16.007Z,2.60
2018-06-30T16:46:44.974Z,2.50
2018-06-30T16:49:13.970Z,2.70
2018-06-30T16:51:42.889Z,3.17
2018-06-30T16:54:11.825Z,2.10
2018-06-30T16:56:40.807Z,2.07
2018-06-30T16:59:09.731Z,4.03
2018-06-30T17:01:38.678Z,2.07
2018-06-30T17:04:08.175Z,3.20
2018-06-30T17:06:37.179Z,4.83
2018-06-30T17:09:09.494Z,3.27
2018-06-30T17:11:38.446Z,1.80
2018-06-30T17:14:07.433Z,2.10
2018-06-30T17:16:36.474Z,3.70
2018-06-30T17:19:05.439Z,3.63
2018-06-30T17:21:35.002Z,1.80
2018-06-30T17:24:04.345Z,1.73
2018-06-30T17:26:33.273Z,1.97
2018-06-30T17:29:02.336Z,2.30
2018-06-30T17:31:31.353Z,2.40
2018-06-30T17:34:00.387Z,1.67
2018-06-30T17:36:29.394Z,4.30
2018-06-30T17:38:58.417Z,2.23
2018-06-30T17:41:27.517Z,2.03
2018-06-30T17:43:56.443Z,3.10
2018-06-30T17:46:25.535Z,1.97
2018-06-30T17:48:54.649Z,3.20
2018-06-30T17:51:23.733Z,2.87
2018-06-30T17:53:52.714Z,2.00
2018-06-30T17:56:21.736Z,3.50
2018-06-30T17:58:50.939Z,1.70
2018-06-30T18:01:19.915Z,2.60
2018-06-30T18:03:49.064Z,1.70
2018-06-30T18:06:18.011Z,5.77
2018-06-30T18:08:47.036Z,1.80
2018-06-30T18:11:15.969Z,3.03
2018-06-30T18:13:44.855Z,3.40
2018-06-30T18:16:13.836Z,1.93
2018-06-30T18:18:42.811Z,2.00
2018-06-30T18:21:11.769Z,1.67
2018-06-30T18:23:40.730Z,2.10
2018-06-30T18:26:09.641Z,3.13
2018-06-30T18:28:38.715Z,3.07
2018-06-30T18:31:07.753Z,2.00
2018-06-30T18:33:36.740Z,4.37
2018-06-30T18:36:06.081Z,2.60
2018-06-30T18:38:35.080Z,4.40
2018-06-30T18:41:04.051Z,3.67
2018-06-30T18:43:33.057Z,1.70
2018-06-30T18:46:02.031Z,3.13
2018-06-30T18:48:31.037Z,3.33
2018-06-30T18:51:00.837Z,2.63
2018-06-30T18:53:29.851Z,3.47
2018-06-30T18:55:58.786Z,5.23
2018-06-30T18:58:27.827Z,4.03
2018-06-30T19:00:56.746Z,3.77
2018-06-30T19:03:25.699Z,1.60
2018-06-30T19:05:54.680Z,4.27
2018-06-30T19:08:23.750Z,2.27
2018-06-30T19:10:52.715Z,1.83
2018-06-30T19:13:21.607Z,1.80
2018-06-30T19:15:50.597Z,1.50
2018-06-30T19:18:19.553Z,6.67
2018-06-30T19:20:48.614Z,4.47
2018-06-30T19:23:17.513Z,6.30
2018-06-30T19:25:46.495Z,5.40
2018-06-30T19:28:15.417Z,16.30
2018-06-30T19:30:44.462Z,3.67
2018-06-30T19:33:13.383Z,8.97
2018-06-30T19:35:42.397Z,1.97
2018-06-30T19:38:11.352Z,7.17
2018-06-30T19:40:40.367Z,7.30
2018-06-30T19:43:09.241Z,6.00
2018-06-30T19:45:38.339Z,2.20
2018-06-30T19:48:07.717Z,3.27
2018-06-30T19:50:36.817Z,3.03
2018-06-30T19:53:06.026Z,1.93
2018-06-30T19:55:34.875Z,3.10
2018-06-30T19:58:03.844Z,2.50
2018-06-30T20:00:32.857Z,1.50
2018-06-30T20:03:01.806Z,4.90
2018-06-30T20:05:30.725Z,1.83
2018-06-30T20:07:59.791Z,4.03
2018-06-30T20:10:28.811Z,6.43
2018-06-30T20:12:57.779Z,3.33
2018-06-30T20:15:26.773Z,7.37
2018-06-30T20:17:55.716Z,3.80
2018-06-30T20:20:24.671Z,6.33
2018-06-30T20:22:53.685Z,12.40
2018-06-30T20:25:22.595Z,8.73
2018-06-30T20:27:51.573Z,3.23
2018-06-30T20:30:20.730Z,1.47
2018-06-30T20:32:49.699Z,4.80
2018-06-30T20:35:18.691Z,1.60
2018-06-30T20:37:47.659Z,3.43
2018-06-30T20:40:16.617Z,1.47
2018-06-30T20:42:45.620Z,3.27
2018-06-30T20:45:14.701Z,1.10
2018-06-30T20:47:43.752Z,3.10
2018-06-30T20:50:12.703Z,2.10
2018-06-30T20:52:41.774Z,4.73
2018-06-30T20:55:10.715Z,1.67
2018-06-30T20:57:39.673Z,1.20
2018-06-30T21:00:08.614Z,1.90
2018-06-30T21:02:37.656Z,2.57
2018-06-30T21:05:06.689Z,2.00
2018-06-30T21:07:35.857Z,6.13
2018-06-30T21:10:05.425Z,1.10
2018-06-30T21:12:34.348Z,3.73
2018-06-30T21:15:03.439Z,1.27
2018-06-30T21:17:32.361Z,1.60
2018-06-30T21:20:01.249Z,1.10
2018-06-30T21:22:30.248Z,2.40
2018-06-30T21:24:59.194Z,1.10
2018-06-30T21:27:28.124Z,1.77
2018-06-30T21:29:57.116Z,2.43
2018-06-30T21:32:26.032Z,1.43
2018-06-30T21:34:55.010Z,2.30
2018-06-30T21:37:24.004Z,2.20
2018-06-30T21:39:52.980Z,1.10
2018-06-30T21:42:21.931Z,2.40
2018-06-30T21:44:50.983Z,0.80
2018-06-30T21:47:19.947Z,2.40
2018-06-30T21:49:48.887Z,1.60
2018-06-30T21:52:17.854Z,1.70
2018-06-30T21:54:46.820Z,2.53
2018-06-30T21:57:15.762Z,1.80
2018-06-30T21:59:44.756Z,1.00
2018-06-30T22:02:13.846Z,1.93
2018-06-30T22:04:42.786Z,1.10
2018-06-30T22:07:11.900Z,3.40
2018-06-30T22:09:40.968Z,3.90
2018-06-30T22:12:09.948Z,1.93
2018-06-30T22:14:38.954Z,1.57
2018-06-30T22:17:07.974Z,3.57
2018-06-30T22:19:36.909Z,1.30
2018-06-30T22:22:06.092Z,1.30
2018-06-30T22:24:35.064Z,4.87
2018-06-30T22:27:04.184Z,1.30
2018-06-30T22:29:33.126Z,1.83
2018-06-30T22:32:02.080Z,2.20
2018-06-30T22:34:31.046Z,1.83
2018-06-30T22:37:00.023Z,2.07
2018-06-30T22:39:40.119Z,4.60
2018-06-30T22:42:09.050Z,4.73
2018-06-30T22:44:38.044Z,2.43
2018-06-30T22:47:07.381Z,4.03
2018-06-30T22:49:36.357Z,2.97
2018-06-30T22:52:05.347Z,0.90
2018-06-30T22:54:34.654Z,4.30
2018-06-30T22:57:03.608Z,1.10
2018-06-30T22:59:32.562Z,2.13
2018-06-30T23:02:01.604Z,0.90
2018-06-30T23:04:30.642Z,1.30
2018-06-30T23:06:59.617Z,1.57
2018-06-30T23:09:28.716Z,0.87
2018-06-30T23:11:57.641Z,1.57
2018-06-30T23:14:26.598Z,1.33
2018-06-30T23:16:55.592Z,1.73
2018-06-30T23:19:24.551Z,2.03
2018-06-30T23:21:53.604Z,1.00
2018-06-30T23:24:22.520Z,1.47
2018-06-30T23:26:51.669Z,4.50
2018-06-30T23:29:20.674Z,2.40
2018-06-30T23:31:49.674Z,1.30
2018-06-30T23:34:18.571Z,1.90
2018-06-30T23:36:47.498Z,1.00
2018-06-30T23:39:16.415Z,1.10
2018-06-30T23:41:45.412Z,3.87
2018-06-30T23:44:14.387Z,1.40
2018-06-30T23:46:43.445Z,5.13
2018-06-30T23:49:12.368Z,2.87
2018-06-30T23:51:41.384Z,0.87
2018-06-30T23:54:10.306Z,2.30
2018-06-30T23:56:39.248Z,4.23
2018-06-30T23:59:08.195Z,1.90
